Time;durP1;ratioP1;P1;durP2;ratioP2;P2;SDS_P1;SDS_P2;PMS_P1;PMS_P2;Temp;Humidity;BMP_temperature;BMP_pressure;BME280_temperature;BME280_humidity;BME280_pressure;Samples;Min_cycle;Max_cycle;Signal;HPM_P1;HPM_P2
2022/01/14 00:01:36;;;;;;;41.33;25.48;;;;;;;-2.20;78.74;101807.63;5018287;28;20065;-72
2022/01/14 00:04:02;;;;;;;41.90;26.13;;;;;;;-2.39;79.04;101791.59;5015543;28;20060;-77
2022/01/14 00:06:27;;;;;;;47.70;29.13;;;;;;;-2.29;78.97;101808.63;5019264;28;20060;-73
2022/01/14 00:09:04;;;;;;;39.38;26.95;;;;;;;-2.20;79.12;101809.25;5018248;28;20084;-73
2022/01/14 00:11:31;;;;;;;48.45;27.05;;;;;;;-2.28;78.67;101785.56;5016421;28;20409;-74
2022/01/14 00:16:32;;;;;;;47.47;25.90;;;;;;;-1.98;78.50;101801.47;5015471;28;20490;-74
2022/01/14 00:18:59;;;;;;;42.55;28.35;;;;;;;-2.25;78.48;101803.78;5018287;28;20049;-73
2022/01/14 00:21:28;;;;;;;45.08;27.77;;;;;;;-2.33;78.19;101786.91;5015780;28;20195;-73
2022/01/14 00:24:06;;;;;;;51.50;29.50;;;;;;;-2.11;78.57;101766.22;5020323;28;20025;-72
2022/01/14 00:32:08;;;;;;;49.38;30.20;;;;;;;-2.27;78.20;101787.38;5019725;28;20044;-76
2022/01/14 00:34:33;;;;;;;43.88;28.55;;;;;;;-2.17;78.09;101774.41;5016427;28;20042;-74
2022/01/14 00:37:00;;;;;;;53.78;31.17;;;;;;;-2.40;79.07;101784.66;5020186;28;20478;-74
2022/01/14 00:39:26;;;;;;;53.33;28.42;;;;;;;-2.34;78.89;101773.16;5019765;28;20033;-72
2022/01/14 00:41:52;;;;;;;45.25;24.73;;;;;;;-2.21;78.37;101779.22;5016532;28;20057;-71
2022/01/14 00:44:18;;;;;;;45.85;29.17;;;;;;;-2.27;79.15;101781.31;5015815;28;20501;-74
2022/01/14 00:46:46;;;;;;;46.33;28.27;;;;;;;-2.31;78.22;101764.78;5017618;28;20045;-71
2022/01/14 00:49:12;;;;;;;40.92;27.52;;;;;;;-2.22;78.74;101775.75;5016843;28;20057;-73
2022/01/14 00:51:38;;;;;;;47.80;29.02;;;;;;;-2.36;78.40;101779.88;5013680;28;20045;-72
2022/01/14 00:54:05;;;;;;;50.10;29.10;;;;;;;-2.57;79.04;101779.16;5002651;28;20348;-72
2022/01/14 00:57:03;;;;;;;43.67;26.38;;;;;;;-2.30;78.84;101737.41;5002556;28;20068;-72
2022/01/14 01:01:45;;;;;;;53.35;29.17;;;;;;;-2.51;78.75;101758.16;5082556;27;20638;-72
2022/01/14 01:04:13;;;;;;;45.33;26.40;;;;;;;-2.45;79.22;101744.91;5043555;28;20053;-72
2022/01/14 01:06:40;;;;;;;39.70;26.38;;;;;;;-2.73;79.52;101722.28;5055542;28;20128;-75
2022/01/14 01:09:10;;;;;;;47.63;27.48;;;;;;;-2.47;79.20;101749.03;5056424;28;20032;-76
2022/01/14 01:11:39;;;;;;;48.33;29.38;;;;;;;-2.64;79.76;101740.06;5055864;28;20052;-72
2022/01/14 01:14:11;;;;;;;53.08;28.20;;;;;;;-2.57;79.01;101712.38;5055028;28;20043;-72
2022/01/14 01:16:37;;;;;;;49.05;29.20;;;;;;;-2.90;79.69;101727.81;5054113;28;20472;-73
2022/01/14 01:19:03;;;;;;;49.47;27.38;;;;;;;-2.47;79.47;101721.63;5053932;28;20056;-74
2022/01/14 01:21:28;;;;;;;39.63;24.50;;;;;;;-2.38;78.52;101724.00;5053443;28;20585;-78
2022/01/14 01:23:55;;;;;;;53.97;27.90;;;;;;;-2.62;79.53;101699.97;5055445;28;20669;-77
2022/01/14 01:26:31;;;;;;;35.63;22.80;;;;;;;-2.45;78.41;101726.91;5050995;28;20044;-73
2022/01/14 01:31:35;;;;;;;49.80;28.98;;;;;;;-2.40;78.40;101713.59;5056042;28;20465;-71
2022/01/14 01:34:07;;;;;;;46.55;25.65;;;;;;;-2.37;78.23;101706.09;5054489;28;20363;-71
2022/01/14 01:36:33;;;;;;;44.42;26.30;;;;;;;-2.62;78.86;101690.59;5055531;28;20041;-73
2022/01/14 01:38:59;;;;;;;38.25;25.75;;;;;;;-2.69;78.91;101698.63;5054932;28;20072;-75
2022/01/14 01:41:25;;;;;;;42.25;26.10;;;;;;;-2.76;78.77;101681.88;5055483;28;20133;-73
2022/01/14 01:43:53;;;;;;;47.00;27.73;;;;;;;-2.67;79.44;101701.28;5053584;28;20058;-71
2022/01/14 01:46:20;;;;;;;42.75;24.40;;;;;;;-2.47;78.75;101683.09;5044045;28;20041;-81
2022/01/14 01:48:55;;;;;;;44.17;26.63;;;;;;;-2.16;78.42;101688.75;5034959;28;20134;-74
2022/01/14 01:51:21;;;;;;;43.40;27.90;;;;;;;-2.36;77.66;101677.06;5036971;28;20025;-76
2022/01/14 01:53:48;;;;;;;40.45;25.65;;;;;;;-2.40;78.14;101666.44;5055713;28;20059;-73
2022/01/14 01:56:14;;;;;;;42.53;27.13;;;;;;;-2.65;78.38;101656.94;5054838;28;20064;-72
2022/01/14 01:58:40;;;;;;;40.45;24.17;;;;;;;-2.46;77.92;101645.44;5054738;28;20076;-74
2022/01/14 02:01:06;;;;;;;40.20;25.48;;;;;;;-2.71;78.38;101650.50;5052921;28;20521;-71
2022/01/14 02:03:34;;;;;;;40.33;24.77;;;;;;;-2.79;78.57;101637.06;5050805;28;20048;-73
2022/01/14 02:06:01;;;;;;;47.72;27.30;;;;;;;-2.85;78.86;101649.47;5034518;28;20120;-73
2022/01/14 02:08:27;;;;;;;49.33;24.13;;;;;;;-2.67;78.36;101629.34;5035006;28;20041;-72
2022/01/14 02:10:53;;;;;;;49.03;24.40;;;;;;;-2.96;79.22;101640.97;5034234;28;20048;-72
2022/01/14 02:13:19;;;;;;;49.55;26.02;;;;;;;-2.68;78.03;101643.00;5022056;28;20045;-79
2022/01/14 02:23:31;;;;;;;46.03;27.70;;;;;;;-2.84;78.38;101629.03;5040729;28;20140;-74
2022/01/14 02:25:57;;;;;;;47.00;22.23;;;;;;;-2.55;78.04;101636.28;5035689;28;20578;-74
2022/01/14 02:28:22;;;;;;;35.60;20.20;;;;;;;-2.68;77.55;101649.03;5041446;28;20069;-73
2022/01/14 02:30:49;;;;;;;49.20;25.63;;;;;;;-2.84;78.35;101631.59;5035607;28;20469;-76
2022/01/14 02:33:17;;;;;;;45.08;25.25;;;;;;;-2.92;78.36;101627.56;5025049;28;20117;-74
2022/01/14 02:35:44;;;;;;;40.92;24.38;;;;;;;-3.06;79.24;101620.53;5039902;28;20028;-75
2022/01/14 02:38:11;;;;;;;38.92;23.63;;;;;;;-3.22;79.38;101627.09;5039483;28;20470;-77
2022/01/14 02:40:38;;;;;;;33.95;24.88;;;;;;;-2.84;78.79;101628.13;5027005;28;20107;-75
2022/01/14 02:43:06;;;;;;;32.33;21.88;;;;;;;-2.72;78.50;101612.72;5022612;28;20058;-73
2022/01/14 02:45:34;;;;;;;42.97;21.98;;;;;;;-3.01;78.38;101614.06;5022814;28;20052;-73
2022/01/14 02:48:01;;;;;;;42.85;23.15;;;;;;;-2.53;78.04;101605.56;5039737;28;20881;-71
2022/01/14 02:50:36;;;;;;;47.97;26.15;;;;;;;-2.62;77.40;101608.38;5022634;28;20483;-71
2022/01/14 02:53:12;;;;;;;39.90;24.65;;;;;;;-2.88;78.06;101593.66;5033175;28;21037;-72
2022/01/14 02:55:43;;;;;;;45.13;25.60;;;;;;;-2.92;77.95;101611.28;5039157;28;20052;-73
2022/01/14 02:58:09;;;;;;;41.42;23.83;;;;;;;-2.78;78.20;101598.66;5038787;28;20384;-72
2022/01/14 03:00:35;;;;;;;48.65;25.27;;;;;;;-2.63;77.77;101608.25;5035915;28;20052;-74
2022/01/14 03:03:00;;;;;;;46.20;24.67;;;;;;;-2.79;77.83;101599.47;5022262;28;20026;-73
2022/01/14 03:05:29;;;;;;;44.95;24.08;;;;;;;-2.84;77.70;101590.50;5018117;28;20042;-72
2022/01/14 03:07:54;;;;;;;39.72;26.27;;;;;;;-2.57;77.70;101565.03;5020454;28;20045;-72
2022/01/14 03:10:20;;;;;;;36.85;22.85;;;;;;;-2.78;77.96;101567.84;5018616;28;20382;-73
2022/01/14 03:12:47;;;;;;;38.53;24.27;;;;;;;-2.60;77.36;101568.28;5019593;28;20052;-73
2022/01/14 03:15:14;;;;;;;50.72;23.50;;;;;;;-2.81;78.38;101577.91;5019405;28;20033;-73
2022/01/14 03:17:40;;;;;;;37.13;22.40;;;;;;;-2.68;77.46;101560.78;5019814;28;20056;-76
2022/01/14 03:20:08;;;;;;;40.47;22.02;;;;;;;-2.64;77.54;101563.69;5019366;28;20128;-73
2022/01/14 03:22:37;;;;;;;40.63;22.60;;;;;;;-2.47;76.91;101557.19;5020489;28;20061;-74
2022/01/14 03:27:52;;;;;;;45.17;21.77;;;;;;;-2.59;77.39;101554.63;5052765;28;20035;-73
2022/01/14 03:30:18;;;;;;;44.80;22.25;;;;;;;-2.63;76.97;101544.91;5039498;28;20542;-76
2022/01/14 03:34:25;;;;;;;40.60;22.90;;;;;;;-2.65;77.48;101540.47;5017287;28;20641;-71
2022/01/14 03:36:51;;;;;;;39.00;24.90;;;;;;;-3.04;77.86;101516.28;4979824;28;20078;-72
2022/01/14 03:39:18;;;;;;;43.55;23.67;;;;;;;-2.99;78.08;101502.09;4980588;28;20117;-75
2022/01/14 03:41:44;;;;;;;42.38;22.08;;;;;;;-2.85;77.99;101506.56;4983529;28;20113;-78
2022/01/14 03:44:09;;;;;;;38.58;21.15;;;;;;;-2.71;77.73;101527.19;4982163;28;20034;-71
2022/01/14 03:46:35;;;;;;;40.00;22.60;;;;;;;-2.74;78.03;101527.84;4978263;28;20060;-71
2022/01/14 03:49:36;;;;;;;46.40;25.00;;;;;;;-2.84;77.63;101525.41;5016432;28;20606;-78
2022/01/14 03:52:02;;;;;;;39.22;26.05;;;;;;;-3.07;78.51;101504.09;5001341;28;20525;-72
2022/01/14 03:56:23;;;;;;;44.33;25.45;;;;;;;-2.69;77.82;101513.69;5002510;28;20622;-73
2022/01/14 03:58:49;;;;;;;45.15;24.58;;;;;;;-3.04;78.24;101501.78;5013942;28;20377;-71
2022/01/14 04:01:15;;;;;;;46.88;27.58;;;;;;;-3.01;78.33;101495.97;5019096;28;20048;-73
2022/01/14 04:03:42;;;;;;;41.20;22.50;;;;;;;-2.60;77.28;101491.22;5021936;28;20033;-80
2022/01/14 04:06:10;;;;;;;41.55;25.27;;;;;;;-2.81;78.07;101511.13;5025720;28;22558;-73
2022/01/14 04:08:37;;;;;;;40.67;27.35;;;;;;;-2.78;78.06;101507.88;5026160;28;20026;-80
2022/01/14 04:11:03;;;;;;;43.72;24.63;;;;;;;-2.97;78.39;101490.28;5022706;28;20057;-72
2022/01/14 04:13:46;;;;;;;45.13;26.45;;;;;;;-3.15;78.88;101481.25;5017890;28;20050;-72
2022/01/14 04:18:15;;;;;;;50.35;29.83;;;;;;;-2.82;78.03;101488.78;5077118;27;1388157;-72
2022/01/14 04:20:43;;;;;;;46.42;28.23;;;;;;;-2.95;78.72;101480.09;5060173;28;20052;-73
2022/01/14 04:23:13;;;;;;;48.33;24.35;;;;;;;-3.03;78.93;101483.00;5063296;28;20044;-72
2022/01/14 04:25:40;;;;;;;47.90;26.80;;;;;;;-3.15;79.33;101479.56;5071351;28;20048;-75
2022/01/14 04:28:06;;;;;;;42.63;26.52;;;;;;;-2.60;78.10;101498.00;5084770;28;20056;-72
2022/01/14 04:30:33;;;;;;;34.17;22.55;;;;;;;-2.83;78.18;101471.59;5087609;28;20043;-72
2022/01/14 04:32:58;;;;;;;41.72;26.83;;;;;;;-2.65;77.60;101463.38;5079701;28;20045;-75
2022/01/14 04:35:27;;;;;;;37.65;25.02;;;;;;;-2.52;77.49;101467.72;5085086;28;20040;-79
2022/01/14 04:37:53;;;;;;;45.08;26.83;;;;;;;-2.73;77.72;101468.00;5083040;28;20040;-71
2022/01/14 04:40:19;;;;;;;44.75;27.45;;;;;;;-2.98;78.44;101455.97;5081606;28;20346;-73
2022/01/14 04:42:45;;;;;;;54.53;30.60;;;;;;;-2.98;78.42;101485.91;5083687;28;20016;-75
2022/01/14 04:45:15;;;;;;;40.63;27.65;;;;;;;-2.73;78.31;101474.81;5082352;28;20036;-73
2022/01/14 04:47:44;;;;;;;51.20;31.10;;;;;;;-2.94;78.15;101451.09;5083174;28;20027;-70
2022/01/14 04:50:15;;;;;;;53.78;27.15;;;;;;;-3.07;78.38;101450.19;5084198;28;20059;-72
2022/01/14 04:52:42;;;;;;;45.40;27.55;;;;;;;-2.90;78.61;101473.59;5082270;28;20043;-79
2022/01/14 04:55:10;;;;;;;52.53;27.98;;;;;;;-2.68;77.90;101469.22;5084475;28;20040;-77
2022/01/14 04:57:36;;;;;;;48.20;26.80;;;;;;;-2.64;77.80;101453.22;5084916;28;20056;-70
2022/01/14 05:00:04;;;;;;;53.28;27.75;;;;;;;-2.79;78.27;101459.84;5087195;28;20027;-78
2022/01/14 05:02:30;;;;;;;45.22;25.95;;;;;;;-2.70;78.31;101457.03;5084326;28;20051;-74
2022/01/14 05:04:57;;;;;;;45.20;27.25;;;;;;;-2.68;78.03;101410.13;5085253;28;20052;-74
2022/01/14 05:07:25;;;;;;;47.72;27.73;;;;;;;-2.72;77.69;101397.84;5082028;28;20036;-71
2022/01/14 05:10:08;;;;;;;44.72;25.40;;;;;;;-2.60;77.42;101424.41;5083177;28;20434;-74
2022/01/14 05:12:35;;;;;;;45.42;26.67;;;;;;;-2.93;78.20;101430.63;5082876;28;20051;-76
2022/01/14 05:15:02;;;;;;;45.10;26.58;;;;;;;-3.03;78.76;101423.06;5082610;28;20028;-73
2022/01/14 05:17:28;;;;;;;45.47;28.23;;;;;;;-3.11;79.62;101425.09;5083382;28;20781;-72
2022/01/14 05:19:54;;;;;;;53.45;29.42;;;;;;;-2.99;79.41;101431.09;5085696;28;20064;-72
2022/01/14 05:22:21;;;;;;;50.45;25.30;;;;;;;-3.12;79.27;101404.44;5086298;28;20048;-73
2022/01/14 05:24:47;;;;;;;52.83;31.40;;;;;;;-3.04;79.21;101398.19;5076260;28;20412;-74
2022/01/14 05:27:13;;;;;;;40.65;28.20;;;;;;;-2.78;78.61;101410.28;5082048;28;20148;-73
2022/01/14 05:29:39;;;;;;;52.17;27.40;;;;;;;-2.81;78.85;101393.00;5068670;28;20040;-74
2022/01/14 05:32:09;;;;;;;49.58;29.90;;;;;;;-2.74;78.37;101375.41;5067421;28;20045;-73
2022/01/14 05:34:36;;;;;;;53.05;30.15;;;;;;;-2.98;78.39;101399.50;5065301;28;20127;-71
2022/01/14 05:37:04;;;;;;;45.50;26.73;;;;;;;-2.97;78.11;101370.50;5071523;28;20068;-73
2022/01/14 05:39:30;;;;;;;47.42;27.52;;;;;;;-2.79;78.42;101381.16;5068527;28;20040;-73
2022/01/14 05:41:57;;;;;;;46.95;27.63;;;;;;;-2.83;78.80;101380.84;5069564;28;20024;-72
2022/01/14 05:44:26;;;;;;;41.35;23.42;;;;;;;-2.78;78.14;101375.22;5071322;28;20451;-72
2022/01/14 05:46:52;;;;;;;43.20;25.50;;;;;;;-2.57;78.12;101375.81;5066876;28;20044;-72
2022/01/14 05:49:17;;;;;;;56.28;27.92;;;;;;;-2.66;77.83;101374.28;5066168;28;20361;-72
2022/01/14 05:51:44;;;;;;;44.65;29.30;;;;;;;-2.64;78.04;101362.44;5072815;28;20055;-78
2022/01/14 05:54:09;;;;;;;49.20;28.45;;;;;;;-2.68;78.04;101345.03;5067996;28;20107;-75
2022/01/14 05:56:35;;;;;;;41.95;26.85;;;;;;;-2.81;77.93;101343.28;5070040;28;20482;-72
2022/01/14 05:59:01;;;;;;;39.95;27.25;;;;;;;-2.64;78.24;101380.44;5067405;28;20519;-73
2022/01/14 06:01:26;;;;;;;45.40;26.85;;;;;;;-3.06;78.48;101358.69;5071264;28;20640;-72
2022/01/14 06:03:52;;;;;;;42.63;27.42;;;;;;;-2.85;78.73;101370.44;5062931;28;20119;-76
2022/01/14 06:06:17;;;;;;;40.45;25.85;;;;;;;-3.05;78.90;101355.31;5047499;28;20029;-72
2022/01/14 06:08:48;;;;;;;45.17;25.20;;;;;;;-2.73;78.47;101357.56;5060261;28;20123;-71
2022/01/14 06:11:13;;;;;;;55.10;26.98;;;;;;;-2.76;78.28;101375.34;5067842;28;20142;-75
2022/01/14 06:16:09;;;;;;;44.50;24.38;;;;;;;-2.67;77.55;101368.25;5036702;28;20616;-72
2022/01/14 06:20:10;;;;;;;42.53;25.92;;;;;;;-2.56;77.51;101351.88;5069356;27;20526;-71
2022/01/14 06:22:36;;;;;;;47.40;30.50;;;;;;;-2.50;77.33;101336.00;5059937;28;20443;-73
2022/01/14 06:25:02;;;;;;;41.42;24.80;;;;;;;-2.34;76.98;101345.63;5053710;28;20400;-74
2022/01/14 06:27:28;;;;;;;42.90;25.35;;;;;;;-2.37;77.18;101343.72;5057434;28;20037;-76
2022/01/14 06:30:12;;;;;;;43.97;26.52;;;;;;;-2.45;76.81;101310.63;5057122;28;20632;-80
2022/01/14 06:32:41;;;;;;;42.25;26.02;;;;;;;-2.62;77.17;101328.34;5022127;28;20145;-77
2022/01/14 06:35:12;;;;;;;48.85;29.73;;;;;;;-2.65;77.49;101299.88;5017601;28;20037;-80
2022/01/14 06:37:39;;;;;;;51.10;26.77;;;;;;;-2.53;77.02;101324.63;5018361;28;20065;-71
2022/01/14 06:40:05;;;;;;;62.58;32.65;;;;;;;-2.19;76.97;101312.34;5015006;28;20072;-75
2022/01/14 06:42:31;;;;;;;43.47;25.73;;;;;;;-2.24;76.43;101301.75;5014703;28;20112;-72
2022/01/14 06:44:57;;;;;;;54.90;27.92;;;;;;;-2.35;75.76;101275.34;5017156;28;20536;-72
2022/01/14 06:47:23;;;;;;;54.72;29.10;;;;;;;-2.43;76.70;101288.47;5016144;28;20496;-75
2022/01/14 06:49:49;;;;;;;58.25;29.52;;;;;;;-2.64;77.00;101273.41;5015140;28;20041;-73
2022/01/14 06:52:14;;;;;;;45.03;27.40;;;;;;;-2.45;76.69;101277.22;5016196;28;20038;-74
2022/01/14 06:54:41;;;;;;;48.45;28.98;;;;;;;-2.33;76.03;101272.88;5016009;28;20048;-73
2022/01/14 06:57:06;;;;;;;50.40;29.38;;;;;;;-2.09;75.76;101303.53;5018078;28;20490;-75
2022/01/14 06:59:33;;;;;;;51.10;29.27;;;;;;;-2.10;76.40;101294.94;4996049;28;20413;-75
2022/01/14 07:01:59;;;;;;;46.88;30.13;;;;;;;-2.16;75.71;101276.53;5009452;28;20057;-73
2022/01/14 07:04:25;;;;;;;52.03;32.05;;;;;;;-1.96;75.57;101288.13;5011476;28;20042;-77
2022/01/14 07:06:50;;;;;;;43.42;28.75;;;;;;;-2.13;75.49;101281.91;5014579;28;20042;-73
2022/01/14 07:09:17;;;;;;;44.38;28.95;;;;;;;-2.24;75.98;101254.59;5017337;28;20036;-74
2022/01/14 07:11:47;;;;;;;56.63;35.50;;;;;;;-2.42;76.03;101267.13;5018453;28;21044;-78
2022/01/14 07:14:13;;;;;;;51.92;30.63;;;;;;;-1.77;75.07;101293.63;5019626;28;20101;-72
2022/01/14 07:16:39;;;;;;;53.17;29.52;;;;;;;-2.02;74.89;101259.44;5019010;28;20046;-72
2022/01/14 07:20:13;;;;;;;55.28;31.13;;;;;;;-2.35;76.31;101261.59;5048256;27;21162;-81
2022/01/14 07:22:46;;;;;;;48.25;29.70;;;;;;;-2.25;76.53;101281.97;5017510;28;20504;-75
2022/01/14 07:25:11;;;;;;;53.13;29.40;;;;;;;-1.93;75.54;101280.59;5012652;28;20595;-77
2022/01/14 07:27:37;;;;;;;49.95;29.13;;;;;;;-1.86;75.55;101277.63;5015747;28;20042;-73
2022/01/14 07:30:05;;;;;;;49.03;28.20;;;;;;;-1.41;74.01;101283.88;5016506;28;20029;-73
2022/01/14 07:32:30;;;;;;;59.47;28.33;;;;;;;-1.60;74.04;101273.22;5015102;28;20057;-73
2022/01/14 07:34:57;;;;;;;58.22;29.20;;;;;;;-1.61;74.67;101277.50;5029113;28;20795;-71
2022/01/14 07:37:23;;;;;;;55.58;30.27;;;;;;;-2.07;75.26;101258.25;5035003;28;20043;-73
2022/01/14 07:39:48;;;;;;;49.05;30.33;;;;;;;-1.44;74.10;101285.38;5034865;28;20041;-74
2022/01/14 07:42:15;;;;;;;48.75;27.17;;;;;;;-1.64;74.24;101282.47;5034966;28;20090;-73
2022/01/14 07:44:41;;;;;;;47.13;26.35;;;;;;;-1.82;75.76;101287.31;5036082;28;20021;-82
2022/01/14 07:47:07;;;;;;;41.85;26.00;;;;;;;-1.58;74.31;101254.53;5033608;28;20512;-74
2022/01/14 07:49:32;;;;;;;47.40;28.08;;;;;;;-1.51;74.25;101260.94;5035232;28;20063;-74
2022/01/14 07:51:59;;;;;;;43.97;27.70;;;;;;;-1.79;75.36;101271.19;5039370;28;20056;-74
2022/01/14 07:54:24;;;;;;;49.60;27.95;;;;;;;-1.64;75.70;101281.53;5035278;28;20381;-75
2022/01/14 07:56:53;;;;;;;45.47;25.73;;;;;;;-1.30;74.32;101280.28;5036182;28;20021;-73
2022/01/14 07:59:23;;;;;;;38.67;27.17;;;;;;;-1.45;74.50;101248.47;5035687;28;20053;-73
2022/01/14 08:01:54;;;;;;;65.28;28.30;;;;;;;-1.47;75.57;101251.75;5034513;28;20053;-73
2022/01/14 08:04:20;;;;;;;46.58;26.20;;;;;;;-1.24;74.42;101228.31;5033631;28;20045;-72
2022/01/14 08:06:49;;;;;;;55.47;27.95;;;;;;;-1.30;74.85;101243.34;5034690;28;20084;-76
2022/01/14 08:09:16;;;;;;;39.72;26.58;;;;;;;-0.87;74.04;101208.19;5033625;28;20055;-82
2022/01/14 08:11:43;;;;;;;42.47;27.27;;;;;;;-0.81;73.65;101205.09;5034387;28;20037;-80
2022/01/14 08:14:10;;;;;;;42.53;25.50;;;;;;;-0.67;73.01;101224.81;5034746;28;20048;-77
2022/01/14 08:16:36;;;;;;;52.67;31.48;;;;;;;-0.63;72.96;101220.72;5035100;28;20103;-76
2022/01/14 08:19:02;;;;;;;50.22;26.98;;;;;;;-0.34;72.87;101201.75;5034397;28;20071;-70
2022/01/14 08:21:27;;;;;;;43.58;28.02;;;;;;;-0.28;72.28;101221.84;5016070;28;20049;-71
2022/01/14 08:23:53;;;;;;;47.08;26.98;;;;;;;-0.53;72.95;101197.25;5034055;28;20044;-71
2022/01/14 08:26:19;;;;;;;45.08;28.40;;;;;;;-0.48;72.46;101221.59;5030178;28;20025;-70
2022/01/14 08:28:44;;;;;;;47.22;28.77;;;;;;;-0.43;73.01;101183.19;5033150;28;20045;-69
2022/01/14 08:31:10;;;;;;;48.88;25.83;;;;;;;-0.09;71.90;101195.41;5022397;28;20042;-70
2022/01/14 08:33:36;;;;;;;49.55;27.98;;;;;;;-0.11;71.99;101181.53;5020895;28;20131;-71
2022/01/14 08:36:02;;;;;;;45.33;26.02;;;;;;;0.15;72.24;101194.16;5021558;28;20041;-71
2022/01/14 08:38:27;;;;;;;39.45;24.80;;;;;;;-0.23;72.29;101192.06;5020077;28;20389;-69
2022/01/14 08:40:53;;;;;;;41.17;23.52;;;;;;;0.00;72.50;101167.56;5019751;28;20110;-70
2022/01/14 08:43:19;;;;;;;40.95;26.20;;;;;;;0.62;70.97;101141.59;5019825;28;20560;-72
2022/01/14 08:45:45;;;;;;;46.08;27.05;;;;;;;0.97;70.11;101164.88;5019675;28;20050;-73
2022/01/14 08:48:11;;;;;;;41.00;25.85;;;;;;;0.59;70.35;101133.69;5020443;28;20491;-69
2022/01/14 08:50:38;;;;;;;47.85;26.02;;;;;;;0.44;70.88;101121.69;5021592;28;20396;-72
2022/01/14 08:53:08;;;;;;;48.60;27.65;;;;;;;0.72;70.55;101140.38;5019115;28;20045;-71
2022/01/14 08:55:36;;;;;;;36.70;23.60;;;;;;;0.21;71.53;101123.94;5019852;28;20485;-75
2022/01/14 08:58:03;;;;;;;43.90;28.10;;;;;;;0.39;71.71;101148.13;5018699;28;20081;-72
2022/01/14 09:00:29;;;;;;;36.50;25.23;;;;;;;0.80;70.64;101133.91;5018845;28;20119;-72
2022/01/14 09:02:55;;;;;;;41.38;25.80;;;;;;;0.78;70.68;101142.41;5020467;28;20083;-71
2022/01/14 09:05:22;;;;;;;37.65;26.05;;;;;;;0.72;70.83;101109.38;5018869;28;20436;-69
2022/01/14 09:07:49;;;;;;;39.88;25.38;;;;;;;0.69;71.15;101109.22;5019311;28;20485;-69
2022/01/14 09:10:14;;;;;;;52.22;27.52;;;;;;;1.00;70.59;101105.59;5018547;28;20154;-69
2022/01/14 09:12:40;;;;;;;45.65;26.95;;;;;;;1.08;70.71;101103.38;5019680;28;20529;-70
2022/01/14 09:15:07;;;;;;;40.47;24.67;;;;;;;1.03;70.88;101096.31;5020377;28;20022;-75
2022/01/14 09:20:05;;;;;;;41.45;27.55;;;;;;;1.63;69.87;101100.88;5026706;27;20643;-75
2022/01/14 09:22:32;;;;;;;53.03;30.10;;;;;;;1.32;70.58;101098.56;5022608;28;20113;-77
2022/01/14 09:24:59;;;;;;;42.10;23.95;;;;;;;1.34;71.14;101086.59;5014943;28;20034;-75
2022/01/14 09:27:27;;;;;;;40.75;26.08;;;;;;;1.64;70.39;101079.41;5016071;28;20052;-77
2022/01/14 09:29:54;;;;;;;35.08;24.00;;;;;;;1.64;70.62;101044.06;5013408;28;20036;-74
2022/01/14 09:32:20;;;;;;;38.33;23.67;;;;;;;1.59;70.25;101045.56;5011852;28;20395;-77
2022/01/14 09:34:46;;;;;;;45.00;26.35;;;;;;;1.65;70.20;101045.81;5011871;28;20042;-77
2022/01/14 09:37:11;;;;;;;34.33;23.60;;;;;;;1.46;71.31;101033.75;5011705;28;20054;-76
2022/01/14 09:39:39;;;;;;;46.95;22.70;;;;;;;1.36;71.22;101009.97;5012666;28;20128;-73
2022/01/14 09:42:06;;;;;;;40.67;25.45;;;;;;;1.52;70.93;101027.09;5012489;28;20045;-79
2022/01/14 09:44:31;;;;;;;40.58;23.90;;;;;;;1.77;71.11;101014.47;5012254;28;20056;-80
2022/01/14 09:46:57;;;;;;;40.85;29.35;;;;;;;2.06;70.53;101022.63;5012565;28;20490;-75
2022/01/14 09:49:22;;;;;;;42.60;28.40;;;;;;;2.09;69.81;101025.38;5011630;28;20149;-80
2022/01/14 09:51:48;;;;;;;38.50;24.95;;;;;;;1.81;70.22;101006.03;5013521;28;20713;-77
2022/01/14 09:54:14;;;;;;;41.05;24.88;;;;;;;1.98;69.87;101003.31;5012667;28;20038;-76
2022/01/14 09:56:41;;;;;;;50.10;34.40;;;;;;;2.22;69.48;101006.06;5012243;28;20116;-74
2022/01/14 09:59:07;;;;;;;48.75;28.58;;;;;;;1.89;70.03;100989.13;5012750;28;20053;-76
2022/01/14 10:01:44;;;;;;;38.53;25.23;;;;;;;2.09;69.81;101009.84;5011289;28;20116;-75
2022/01/14 10:04:18;;;;;;;48.15;28.02;;;;;;;2.31;69.70;100980.56;5011607;28;20046;-76
2022/01/14 10:06:49;;;;;;;37.25;22.55;;;;;;;2.66;69.08;101007.94;5014998;28;20067;-77
2022/01/14 10:09:22;;;;;;;45.50;27.40;;;;;;;2.84;68.99;100994.00;5010466;28;20041;-76
2022/01/14 10:12:03;;;;;;;42.83;24.60;;;;;;;2.64;68.65;100999.22;5011455;28;20458;-75
2022/01/14 10:14:30;;;;;;;42.53;24.23;;;;;;;2.38;69.65;100984.31;5010260;28;20069;-76
2022/01/14 10:16:58;;;;;;;36.72;24.55;;;;;;;2.56;70.31;101004.94;5014709;28;20148;-79
2022/01/14 10:19:33;;;;;;;39.58;26.00;;;;;;;2.34;70.49;100998.81;5015374;28;20490;-75
2022/01/14 10:21:59;;;;;;;48.15;29.38;;;;;;;2.59;70.11;100997.28;5014030;28;20120;-75
2022/01/14 10:24:29;;;;;;;48.30;30.10;;;;;;;2.79;69.44;101000.69;5011846;28;20029;-76
2022/01/14 10:27:04;;;;;;;45.47;28.77;;;;;;;2.67;70.01;100957.00;5006600;28;20081;-84
2022/01/14 10:29:30;;;;;;;41.10;27.70;;;;;;;2.62;70.33;100994.81;5006901;28;20045;-75
2022/01/14 10:31:55;;;;;;;45.47;26.10;;;;;;;2.56;70.52;100969.53;4999165;28;20050;-74
2022/01/14 10:34:22;;;;;;;42.22;27.27;;;;;;;2.72;70.23;100956.41;4998103;28;20431;-77
2022/01/14 10:36:50;;;;;;;34.72;24.52;;;;;;;3.13;70.04;100959.72;4998564;28;20124;-75
2022/01/14 10:39:24;;;;;;;34.88;22.90;;;;;;;3.10;69.14;100957.03;4998823;28;20034;-78
2022/01/14 10:41:52;;;;;;;37.80;24.63;;;;;;;3.12;68.75;100942.41;4999665;28;20054;-76
2022/01/14 10:44:38;;;;;;;38.13;24.90;;;;;;;3.69;67.78;100944.53;4997252;28;20050;-81
2022/01/14 10:47:14;;;;;;;41.47;25.75;;;;;;;3.56;68.12;100914.66;4998220;28;20083;-73
2022/01/14 10:49:42;;;;;;;43.03;25.77;;;;;;;3.72;67.03;100938.56;4999907;28;20046;-78
2022/01/14 10:52:16;;;;;;;42.83;26.98;;;;;;;4.08;66.97;100925.13;4997982;28;20050;-80
2022/01/14 10:54:46;;;;;;;39.95;27.90;;;;;;;4.80;64.81;100892.00;4995755;28;20042;-77
2022/01/14 10:57:21;;;;;;;39.53;25.70;;;;;;;4.54;65.17;100900.66;4996127;28;20040;-84
2022/01/14 11:00:21;;;;;;;40.47;25.73;;;;;;;5.14;64.01;100880.00;5036596;28;20622;-84
2022/01/14 11:02:52;;;;;;;38.55;25.75;;;;;;;5.06;62.74;100882.38;5016272;28;20488;-74
2022/01/14 11:05:23;;;;;;;39.60;23.27;;;;;;;5.29;63.03;100882.16;5032353;28;20053;-74
2022/01/14 11:07:50;;;;;;;34.10;23.45;;;;;;;4.67;63.55;100858.66;5017659;28;20068;-75
2022/01/14 11:10:43;;;;;;;36.50;25.17;;;;;;;4.46;64.52;100870.97;5016058;28;20056;-84
2022/01/14 11:13:11;;;;;;;32.53;20.98;;;;;;;5.31;62.93;100869.22;5016280;28;20033;-74
2022/01/14 11:15:37;;;;;;;43.53;26.25;;;;;;;5.98;61.22;100846.78;5024719;28;20366;-72
2022/01/14 11:18:05;;;;;;;36.47;23.38;;;;;;;5.79;61.49;100853.19;5015004;28;20030;-80
2022/01/14 11:20:37;;;;;;;34.83;22.73;;;;;;;5.31;62.14;100838.88;5016507;28;20042;-72
2022/01/14 11:23:14;;;;;;;43.53;23.35;;;;;;;5.22;63.19;100851.59;5017938;28;20099;-72
2022/01/14 11:25:48;;;;;;;33.75;22.23;;;;;;;5.74;61.46;100827.03;5014651;28;20910;-75
2022/01/14 11:28:18;;;;;;;33.33;22.25;;;;;;;5.38;61.85;100822.56;5016668;28;20103;-73
2022/01/14 11:32:11;;;;;;;31.17;22.10;;;;;;;5.00;63.18;100811.09;5011296;28;20640;-71
2022/01/14 11:34:42;;;;;;;32.28;21.52;;;;;;;5.27;62.71;100811.91;5004965;28;20034;-75
2022/01/14 11:37:17;;;;;;;31.90;21.98;;;;;;;5.26;63.08;100827.44;5003956;28;20133;-72
2022/01/14 11:40:07;;;;;;;35.13;22.33;;;;;;;5.12;64.06;100792.38;5002667;28;20034;-72
2022/01/14 11:42:46;;;;;;;44.25;22.75;;;;;;;5.34;63.34;100781.72;5004610;28;20097;-69
2022/01/14 11:45:17;;;;;;;32.03;22.70;;;;;;;5.52;63.33;100796.06;5003356;28;20024;-75
2022/01/14 11:47:44;;;;;;;40.80;23.45;;;;;;;5.69;63.28;100780.06;5005005;28;20112;-71
2022/01/14 11:50:19;;;;;;;33.78;21.20;;;;;;;5.49;63.63;100783.84;4998595;28;20053;-73
2022/01/14 11:52:45;;;;;;;35.78;23.30;;;;;;;5.17;64.92;100772.56;5003336;28;20390;-73
2022/01/14 11:55:23;;;;;;;29.58;20.38;;;;;;;5.15;65.29;100767.34;5001241;28;20053;-81